Blair, Mississippi
Current Conditions -  °F | °C
As of 5:53 AM on Thursday 27 Nov 2014 (Local Time) from KTUP Reporting Station
Clear Clear  
Wind Chill: 32°   Ceiling: Unl
Heat Index: 36°   Visibility: 10mi
Dew Point: 28°   Wind: 5mph
Humidity: 73%   Direction: 320°NW
Pressure: 30.35"   Gusts: NA
Location:  34.433°N, 88.7018°W
Report Text: KTUP 271153Z AUTO 32004KT 10SM CLR 02/M02 A3035 RMK AO2 SLP276 T00221022 10044 20022 53027 $
Loading
Personal Weather Stations






























Interactive Weather Map New forecast layout! Learn more

10-Day Weather Forecast

Advertisements
Track Severe Weather on mobile